createdAt,value
2019-02-07T00:33:47.411Z,20.73
2019-02-07T00:36:15.366Z,17.90
2019-02-07T00:38:43.271Z,17.63
2019-02-07T00:41:10.971Z,16.97
2019-02-07T00:43:38.599Z,16.57
2019-02-07T00:46:06.260Z,15.57
2019-02-07T00:48:34.188Z,16.67
2019-02-07T00:51:01.868Z,16.43
2019-02-07T00:53:45.379Z,15.47
2019-02-07T00:56:40.248Z,14.93
2019-02-07T00:59:07.878Z,15.27
2019-02-07T01:01:35.882Z,15.63
2019-02-07T01:04:03.621Z,15.90
2019-02-07T01:06:31.327Z,17.43
2019-02-07T01:08:58.986Z,16.77
2019-02-07T01:11:27.305Z,16.77
2019-02-07T01:13:55.566Z,16.97
2019-02-07T01:16:23.225Z,16.93
2019-02-07T01:18:50.892Z,19.17
2019-02-07T01:21:18.531Z,17.23
2019-02-07T01:23:46.550Z,18.30
2019-02-07T01:26:14.180Z,17.57
2019-02-07T01:28:42.497Z,16.63
2019-02-07T01:31:10.171Z,17.30
2019-02-07T01:33:38.164Z,16.00
2019-02-07T01:36:07.078Z,18.43
2019-02-07T01:38:34.708Z,18.37
2019-02-07T01:41:02.877Z,16.17
2019-02-07T01:43:30.661Z,16.07
2019-02-07T01:45:58.430Z,17.20
2019-02-07T01:48:26.088Z,16.20
2019-02-07T01:50:53.694Z,15.23
2019-02-07T01:53:21.622Z,16.03
2019-02-07T01:55:49.283Z,16.60
2019-02-07T01:58:16.925Z,15.30
2019-02-07T02:00:44.566Z,17.70
2019-02-07T02:03:12.669Z,15.13
2019-02-07T02:05:40.603Z,16.30
2019-02-07T02:08:09.240Z,16.40
2019-02-07T02:10:37.172Z,15.70
2019-02-07T02:13:04.816Z,16.03
2019-02-07T02:15:32.431Z,14.57
2019-02-07T02:18:00.361Z,14.23
2019-02-07T02:20:28.208Z,13.73
2019-02-07T02:22:55.866Z,12.67
2019-02-07T02:25:24.754Z,12.50
2019-02-07T02:27:52.685Z,12.43
2019-02-07T02:30:27.721Z,12.90
2019-02-07T02:32:55.515Z,13.77
2019-02-07T02:35:23.772Z,14.43
2019-02-07T02:37:51.456Z,14.20
2019-02-07T02:40:19.180Z,14.00
2019-02-07T02:42:46.895Z,14.23
2019-02-07T02:45:14.842Z,13.77
2019-02-07T02:47:42.606Z,14.67
2019-02-07T02:53:00.059Z,13.93
2019-02-07T02:55:38.865Z,15.10
2019-02-07T02:58:06.755Z,14.60
2019-02-07T03:00:54.282Z,13.37
2019-02-07T03:03:41.722Z,13.90
2019-02-07T03:06:34.875Z,13.10
2019-02-07T03:09:20.981Z,14.00
2019-02-07T03:12:07.634Z,12.83
2019-02-07T03:14:46.089Z,14.20
2019-02-07T03:17:33.061Z,13.60
2019-02-07T03:20:18.634Z,14.23
2019-02-07T03:23:08.702Z,13.93
2019-02-07T03:25:58.984Z,13.83
2019-02-07T03:28:47.656Z,14.37
2019-02-07T03:31:46.749Z,13.83
2019-02-07T03:34:42.906Z,14.80
2019-02-07T03:37:16.598Z,15.30
2019-02-07T03:40:02.396Z,15.83
2019-02-07T03:42:55.413Z,13.47
2019-02-07T03:45:42.284Z,14.00
2019-02-07T03:48:29.030Z,13.23
2019-02-07T03:51:19.140Z,12.13
2019-02-07T03:54:09.081Z,10.83
2019-02-07T03:56:56.457Z,13.20
2019-02-07T03:59:42.749Z,12.57
2019-02-07T04:02:28.225Z,12.37
2019-02-07T04:05:14.392Z,12.80
2019-02-07T04:10:39.273Z,12.97
2019-02-07T04:13:26.454Z,12.73
2019-02-07T04:16:15.316Z,10.80
2019-02-07T04:19:12.895Z,12.83
2019-02-07T04:22:05.867Z,14.03
2019-02-07T04:24:52.343Z,13.57
2019-02-07T04:27:37.978Z,14.03
2019-02-07T04:30:25.435Z,15.33
2019-02-07T04:33:12.645Z,14.47
2019-02-07T04:35:59.829Z,14.47
2019-02-07T04:38:47.311Z,16.60
2019-02-07T04:41:40.309Z,14.17
2019-02-07T04:44:46.673Z,11.90
2019-02-07T04:47:32.383Z,10.90
2019-02-07T04:50:17.970Z,9.17
2019-02-07T04:53:10.944Z,8.13
2019-02-07T04:56:01.926Z,7.13
2019-02-07T04:58:42.059Z,5.23
2019-02-07T05:01:32.064Z,4.77
2019-02-07T05:04:19.201Z,3.80
2019-02-07T05:07:00.314Z,2.87
2019-02-07T05:09:48.467Z,2.57
2019-02-07T05:12:35.595Z,2.37
2019-02-07T05:15:21.828Z,1.33
2019-02-07T05:18:11.880Z,1.40
2019-02-07T05:21:03.137Z,1.53
2019-02-07T05:23:50.239Z,2.27
2019-02-07T05:26:45.817Z,3.00
2019-02-07T05:29:41.914Z,3.87
2019-02-07T05:32:29.321Z,3.40
2019-02-07T05:35:15.132Z,3.87
2019-02-07T05:38:02.464Z,5.00
2019-02-07T05:40:55.694Z,7.60
2019-02-07T05:43:48.138Z,7.57
2019-02-07T05:46:51.318Z,6.87
2019-02-07T05:53:09.378Z,6.93
2019-02-07T05:55:55.177Z,3.60
2019-02-07T05:58:42.331Z,4.63
2019-02-07T06:01:29.477Z,3.57
2019-02-07T06:04:03.154Z,5.10
2019-02-07T06:06:48.186Z,4.37
2019-02-07T06:09:38.106Z,5.30
2019-02-07T06:12:24.816Z,5.90
2019-02-07T06:15:13.974Z,4.73
2019-02-07T06:17:59.510Z,4.20
2019-02-07T06:20:37.857Z,3.50
2019-02-07T06:23:16.617Z,3.90
2019-02-07T06:26:03.198Z,3.83
2019-02-07T06:29:05.527Z,5.30
2019-02-07T06:31:52.682Z,3.27
2019-02-07T06:34:38.164Z,4.57
2019-02-07T06:37:23.941Z,2.83
2019-02-07T06:40:17.280Z,4.60
2019-02-07T06:46:07.171Z,4.63
2019-02-07T06:48:47.841Z,3.37
2019-02-07T06:51:36.726Z,3.07
2019-02-07T06:54:26.955Z,3.53
2019-02-07T06:57:12.572Z,2.83
2019-02-07T07:00:11.541Z,2.67
2019-02-07T07:02:53.493Z,2.73
2019-02-07T07:05:49.787Z,3.43
2019-02-07T07:08:32.854Z,3.93
2019-02-07T07:11:18.659Z,4.03
2019-02-07T07:14:12.763Z,3.53
2019-02-07T07:17:12.272Z,3.73
2019-02-07T07:20:00.339Z,2.83
2019-02-07T07:22:53.625Z,4.00
2019-02-07T07:25:39.486Z,3.27
2019-02-07T07:28:32.454Z,4.73
2019-02-07T07:31:22.877Z,3.43
2019-02-07T07:34:08.417Z,3.10
2019-02-07T07:37:10.592Z,3.67
2019-02-07T07:40:06.914Z,3.83
2019-02-07T07:42:52.566Z,4.30
2019-02-07T07:45:56.970Z,4.17
2019-02-07T07:48:47.106Z,5.10
2019-02-07T07:51:32.925Z,3.43
2019-02-07T07:54:15.332Z,4.00
2019-02-07T07:57:01.371Z,4.27
2019-02-07T07:59:51.686Z,3.50
2019-02-07T08:02:48.212Z,3.57
2019-02-07T08:05:35.621Z,2.83
2019-02-07T08:08:29.267Z,2.70
2019-02-07T08:11:17.407Z,2.93
2019-02-07T08:14:03.680Z,3.07
2019-02-07T08:16:53.777Z,2.70
2019-02-07T08:19:39.966Z,3.37
2019-02-07T08:22:27.417Z,2.67
2019-02-07T08:25:13.187Z,2.60
2019-02-07T08:28:00.879Z,3.10
2019-02-07T08:30:46.720Z,3.33
2019-02-07T08:33:39.165Z,3.47
2019-02-07T08:36:37.918Z,2.73
2019-02-07T08:39:29.804Z,4.00
2019-02-07T08:42:23.502Z,2.53
2019-02-07T08:45:17.174Z,2.27
2019-02-07T08:48:13.582Z,4.10
2019-02-07T08:51:30.764Z,2.53
2019-02-07T08:54:18.951Z,2.37
2019-02-07T08:57:05.721Z,2.43
2019-02-07T09:03:07.072Z,4.07
2019-02-07T09:09:55.143Z,4.37
2019-02-07T09:17:39.158Z,2.70
2019-02-07T09:22:53.253Z,3.87
2019-02-07T09:25:38.962Z,3.47
2019-02-07T09:28:30.415Z,3.87
2019-02-07T09:31:16.461Z,4.20
2019-02-07T09:34:15.680Z,4.00
2019-02-07T09:37:14.067Z,3.07
2019-02-07T09:39:51.920Z,3.87
2019-02-07T09:42:40.306Z,3.20
2019-02-07T09:45:39.163Z,4.60
2019-02-07T09:48:25.108Z,2.87
2019-02-07T09:51:12.180Z,3.57
2019-02-07T09:53:58.103Z,2.90
2019-02-07T09:56:52.776Z,2.77
2019-02-07T09:59:37.250Z,3.03
2019-02-07T10:02:27.220Z,2.57
2019-02-07T10:05:13.000Z,2.90
2019-02-07T10:08:01.074Z,2.13
2019-02-07T10:10:48.772Z,2.80
2019-02-07T10:13:48.185Z,1.97
2019-02-07T10:16:34.542Z,4.10
2019-02-07T10:19:20.817Z,2.70
2019-02-07T10:22:06.396Z,3.23
2019-02-07T10:24:52.192Z,2.77
2019-02-07T10:27:38.139Z,2.37
2019-02-07T10:30:26.483Z,2.90
2019-02-07T10:33:12.190Z,2.60
2019-02-07T10:35:59.512Z,2.63
2019-02-07T10:38:44.860Z,2.60
2019-02-07T10:41:32.208Z,2.70
2019-02-07T10:44:13.878Z,2.17
2019-02-07T10:47:03.169Z,3.80
2019-02-07T10:49:45.905Z,2.13
2019-02-07T10:52:32.123Z,2.20
2019-02-07T10:55:19.789Z,2.57
2019-02-07T10:58:11.245Z,4.10
2019-02-07T11:01:01.206Z,3.13
2019-02-07T11:03:46.759Z,2.17
2019-02-07T11:06:33.874Z,2.20
2019-02-07T11:09:18.212Z,2.00
2019-02-07T11:12:06.767Z,2.30
2019-02-07T11:14:57.153Z,2.00
2019-02-07T11:17:53.971Z,2.17
2019-02-07T11:20:41.298Z,2.60
2019-02-07T11:23:37.462Z,2.63
2019-02-07T11:26:32.528Z,2.50
2019-02-07T11:29:38.203Z,1.93
2019-02-07T11:32:28.240Z,1.93
2019-02-07T11:35:21.649Z,1.67
2019-02-07T11:38:35.830Z,1.30
2019-02-07T11:41:09.180Z,1.15
2019-02-07T11:44:02.419Z,1.20
2019-02-07T11:46:48.967Z,1.33
2019-02-07T11:49:42.020Z,1.50
2019-02-07T11:52:47.321Z,1.00
2019-02-07T11:55:32.961Z,1.30
2019-02-07T11:58:20.360Z,1.40
2019-02-07T12:01:09.530Z,1.33
2019-02-07T12:04:01.099Z,0.90
2019-02-07T12:06:46.998Z,1.60
2019-02-07T12:09:40.810Z,1.50
2019-02-07T12:19:17.826Z,1.30
2019-02-07T12:22:22.786Z,1.30
2019-02-07T12:25:32.953Z,1.27
2019-02-07T12:35:44.990Z,1.70
2019-02-07T12:38:49.840Z,1.20
2019-02-07T12:41:40.093Z,2.17
2019-02-07T12:44:38.802Z,1.30
2019-02-07T12:47:26.154Z,1.00
2019-02-07T12:50:15.030Z,1.10
2019-02-07T12:53:15.069Z,0.73
2019-02-07T12:56:37.787Z,1.07
2019-02-07T12:59:35.784Z,0.73
2019-02-07T13:02:31.402Z,0.63
2019-02-07T13:06:08.389Z,0.60
2019-02-07T13:09:03.912Z,1.07
2019-02-07T13:12:01.582Z,1.50
2019-02-07T13:14:42.054Z,0.97
2019-02-07T13:17:36.505Z,1.10
2019-02-07T13:20:44.281Z,0.70
2019-02-07T13:23:34.527Z,1.00
2019-02-07T13:26:33.075Z,1.00
2019-02-07T13:29:38.415Z,0.90
2019-02-07T13:32:24.545Z,1.07
2019-02-07T13:35:34.714Z,0.90
2019-02-07T13:38:32.349Z,0.57
2019-02-07T13:41:19.453Z,0.50
2019-02-07T13:44:07.033Z,0.63
2019-02-07T13:46:54.158Z,0.70
2019-02-07T13:49:51.402Z,1.00
2019-02-07T13:52:32.770Z,0.97
2019-02-07T13:55:32.446Z,1.33
2019-02-07T13:58:44.066Z,1.23
2019-02-07T14:02:02.958Z,0.90
2019-02-07T14:05:13.045Z,0.90
2019-02-07T14:08:06.163Z,1.60
2019-02-07T14:14:41.355Z,2.20
2019-02-07T14:17:59.675Z,1.50
2019-02-07T14:20:59.225Z,1.60
2019-02-07T14:23:58.165Z,1.53
2019-02-07T14:27:01.990Z,1.77
2019-02-07T14:29:54.372Z,0.93
2019-02-07T14:32:43.047Z,1.33
2019-02-07T14:35:45.036Z,1.00
2019-02-07T14:38:33.020Z,1.30
2019-02-07T14:41:19.315Z,1.93
2019-02-07T14:44:08.395Z,1.27
2019-02-07T14:46:55.635Z,1.27
2019-02-07T14:49:25.044Z,1.27
2019-02-07T14:51:53.449Z,1.53
2019-02-07T14:54:21.493Z,1.57
2019-02-07T14:56:49.788Z,1.73
2019-02-07T14:59:17.923Z,1.17
2019-02-07T15:01:46.043Z,1.57
2019-02-07T15:04:14.426Z,1.60
2019-02-07T15:06:42.847Z,1.73
2019-02-07T15:09:12.383Z,2.33
2019-02-07T15:11:40.610Z,1.20
2019-02-07T15:14:08.785Z,2.23
2019-02-07T15:16:36.966Z,1.23
2019-02-07T15:19:05.253Z,2.03
2019-02-07T15:21:33.644Z,1.00
2019-02-07T15:24:04.295Z,2.00
2019-02-07T15:26:47.190Z,1.10
2019-02-07T15:29:19.358Z,0.93
2019-02-07T15:31:47.931Z,0.83
2019-02-07T15:34:19.169Z,1.13
2019-02-07T15:36:49.193Z,0.97
2019-02-07T15:39:18.772Z,1.50
2019-02-07T15:41:47.000Z,1.27
2019-02-07T15:44:15.739Z,1.10
2019-02-07T15:46:47.170Z,1.30
2019-02-07T15:49:30.288Z,1.50
2019-02-07T15:51:58.542Z,0.80
2019-02-07T15:54:27.281Z,1.23
2019-02-07T15:56:57.602Z,0.90
2019-02-07T15:59:33.877Z,0.90
2019-02-07T16:02:16.066Z,1.20
2019-02-07T16:04:50.165Z,1.07
2019-02-07T16:07:19.503Z,1.07
2019-02-07T16:09:47.776Z,1.10
2019-02-07T16:15:01.106Z,1.23
2019-02-07T16:17:28.805Z,0.93
2019-02-07T16:19:56.514Z,0.90
2019-02-07T16:22:24.473Z,1.83
2019-02-07T16:24:52.134Z,0.77
2019-02-07T16:27:20.302Z,1.57
2019-02-07T16:29:47.963Z,1.20
2019-02-07T16:32:15.776Z,1.30
2019-02-07T16:34:43.836Z,1.00
2019-02-07T16:37:11.532Z,1.63
2019-02-07T16:42:34.883Z,1.90
2019-02-07T16:45:04.432Z,1.10
2019-02-07T16:47:32.449Z,1.40
2019-02-07T16:50:00.193Z,1.70
2019-02-07T16:52:27.820Z,1.20
2019-02-07T16:54:55.679Z,1.43
2019-02-07T16:57:23.676Z,1.10
2019-02-07T16:59:51.331Z,1.53
2019-02-07T17:02:19.049Z,1.87
2019-02-07T17:07:35.411Z,1.40
2019-02-07T17:10:05.522Z,1.90
2019-02-07T17:15:22.675Z,1.37
2019-02-07T17:17:58.365Z,1.50
2019-02-07T17:20:29.497Z,2.83
2019-02-07T17:22:58.649Z,2.63
2019-02-07T17:25:27.926Z,1.33
2019-02-07T17:27:55.930Z,1.50
2019-02-07T17:30:24.229Z,1.53
2019-02-07T17:32:52.422Z,2.27
2019-02-07T17:35:20.199Z,1.77
2019-02-07T17:37:47.937Z,1.57
2019-02-07T17:43:22.072Z,2.07
2019-02-07T17:45:49.769Z,1.43
2019-02-07T17:48:17.766Z,3.00
2019-02-07T17:50:45.389Z,2.43
2019-02-07T17:53:13.451Z,2.40
2019-02-07T17:55:41.080Z,1.20
2019-02-07T17:58:10.148Z,1.80
2019-02-07T18:03:20.754Z,2.10
2019-02-07T18:05:48.530Z,1.47
2019-02-07T18:08:16.334Z,2.20
2019-02-07T18:10:44.065Z,2.00
2019-02-07T18:13:11.821Z,1.50
2019-02-07T18:15:39.528Z,1.97
2019-02-07T18:18:07.524Z,1.57
2019-02-07T18:20:35.210Z,1.83
2019-02-07T18:23:03.135Z,1.10
2019-02-07T18:25:31.264Z,1.97
2019-02-07T18:27:59.331Z,2.07
2019-02-07T18:30:27.075Z,1.67
2019-02-07T18:32:54.843Z,1.80
2019-02-07T18:35:22.587Z,1.87
2019-02-07T18:37:50.339Z,2.30
2019-02-07T18:40:19.214Z,2.30
2019-02-07T18:42:46.970Z,2.20
2019-02-07T18:45:15.270Z,2.23
2019-02-07T18:47:43.725Z,2.17
2019-02-07T18:50:13.788Z,2.00
2019-02-07T18:52:41.812Z,2.13
2019-02-07T18:55:09.681Z,2.30
2019-02-07T18:57:37.720Z,2.23
2019-02-07T19:00:06.636Z,1.60
2019-02-07T19:02:34.772Z,1.40
2019-02-07T19:05:04.231Z,1.83
2019-02-07T19:07:31.867Z,2.57
2019-02-07T19:10:00.804Z,2.00
2019-02-07T19:12:28.611Z,1.53
2019-02-07T19:14:56.236Z,1.60
2019-02-07T19:17:23.922Z,1.57
2019-02-07T19:19:51.890Z,2.50
2019-02-07T19:22:19.567Z,2.50
2019-02-07T19:24:48.258Z,1.00
2019-02-07T19:27:15.874Z,1.47
2019-02-07T19:29:43.545Z,1.90
2019-02-07T19:32:11.240Z,1.83
2019-02-07T19:34:38.927Z,1.87
2019-02-07T19:37:06.598Z,1.47
2019-02-07T19:39:34.275Z,1.37
2019-02-07T19:42:02.243Z,1.70
2019-02-07T19:44:30.166Z,1.97
2019-02-07T19:46:57.835Z,1.50
2019-02-07T19:49:25.445Z,3.07
2019-02-07T19:51:53.135Z,1.70
2019-02-07T19:54:20.919Z,1.50
2019-02-07T19:56:48.850Z,1.80
2019-02-07T19:59:16.514Z,1.67
2019-02-07T20:01:44.469Z,1.73
2019-02-07T20:04:13.117Z,2.57
2019-02-07T20:06:41.555Z,2.80
2019-02-07T20:09:10.759Z,2.00
2019-02-07T20:11:38.730Z,1.90
2019-02-07T20:14:06.661Z,2.83
2019-02-07T20:16:34.327Z,2.00
2019-02-07T20:19:02.260Z,1.57
2019-02-07T20:21:29.891Z,2.10
2019-02-07T20:23:57.550Z,1.77
2019-02-07T20:26:25.471Z,1.83
2019-02-07T20:28:53.395Z,2.03
2019-02-07T20:37:00.632Z,1.47
2019-02-07T20:39:28.360Z,1.77
2019-02-07T20:41:56.016Z,2.27
2019-02-07T20:44:23.638Z,1.80
2019-02-07T20:46:51.628Z,1.93
2019-02-07T20:49:19.247Z,2.43
2019-02-07T20:51:46.923Z,1.63
2019-02-07T20:54:14.857Z,1.80
2019-02-07T20:56:43.294Z,1.83
2019-02-07T20:59:11.870Z,2.33
2019-02-07T21:02:20.621Z,3.07
2019-02-07T21:27:37.820Z,1.53
2019-02-07T21:30:06.610Z,1.17
2019-02-07T21:32:34.287Z,1.57
2019-02-07T21:35:02.638Z,1.63
2019-02-07T21:37:30.324Z,2.00
2019-02-07T21:39:57.991Z,1.53
2019-02-07T21:42:25.663Z,1.90
2019-02-07T21:44:53.445Z,2.00
2019-02-07T21:47:21.156Z,2.03
2019-02-07T21:49:49.453Z,1.47
2019-02-07T21:52:17.120Z,1.80
2019-02-07T21:54:46.277Z,1.80
2019-02-07T21:57:14.943Z,1.33
2019-02-07T21:59:42.598Z,1.00
2019-02-07T22:02:10.340Z,1.77
2019-02-07T22:07:29.093Z,1.13
2019-02-07T22:09:56.946Z,1.40
2019-02-07T22:12:24.766Z,1.40
2019-02-07T22:14:52.736Z,1.43
2019-02-07T22:17:20.466Z,0.97
2019-02-07T22:19:48.253Z,1.20
2019-02-07T22:22:15.998Z,1.83
2019-02-07T22:24:44.202Z,0.97
2019-02-07T22:27:13.468Z,1.43
2019-02-07T22:29:41.234Z,1.90
2019-02-07T22:32:09.022Z,1.20
2019-02-07T22:34:36.787Z,1.20
2019-02-07T22:37:04.520Z,1.80
2019-02-07T22:39:32.214Z,1.47
2019-02-07T22:42:00.636Z,1.40
2019-02-07T22:44:28.373Z,1.40
2019-02-07T22:46:56.109Z,1.13
2019-02-07T22:49:23.904Z,1.63
2019-02-07T22:51:51.596Z,0.83
2019-02-07T22:54:19.346Z,1.10
2019-02-07T22:56:47.644Z,1.40
2019-02-07T22:59:15.796Z,1.10
2019-02-07T23:01:48.333Z,1.77
2019-02-07T23:04:16.591Z,1.30
2019-02-07T23:06:44.540Z,1.40
2019-02-07T23:09:14.103Z,1.23
2019-02-07T23:11:41.755Z,1.20
2019-02-07T23:14:09.738Z,1.53
2019-02-07T23:16:37.586Z,1.13
2019-02-07T23:19:05.714Z,1.63
2019-02-07T23:21:41.839Z,1.10
2019-02-07T23:26:49.937Z,1.40
2019-02-07T23:29:17.694Z,1.20
2019-02-07T23:31:45.367Z,2.07
2019-02-07T23:34:13.434Z,2.07
2019-02-07T23:36:41.190Z,2.17
2019-02-07T23:39:10.581Z,2.07
2019-02-07T23:41:49.101Z,1.33
2019-02-07T23:44:16.914Z,1.40
2019-02-07T23:46:45.027Z,1.83
2019-02-07T23:49:13.453Z,1.80
2019-02-07T23:51:41.219Z,1.37
2019-02-07T23:54:09.210Z,1.10
2019-02-07T23:56:37.011Z,1.23
2019-02-07T23:59:05.542Z,1.10
